Time;durP1;ratioP1;P1;durP2;ratioP2;P2;SDS_P1;SDS_P2;PMS_P1;PMS_P2;Temp;Humidity;BMP_temperature;BMP_pressure;BME280_temperature;BME280_humidity;BME280_pressure;Samples;Min_cycle;Max_cycle;Signal;HPM_P1;HPM_P2
2021/07/06 00:01:38;;;;;;;381.08;350.05;;;;;;;;;;5257911;27;20132;-85
2021/07/06 00:04:07;;;;;;;863.15;772.90;;;;;;;;;;5258048;27;20668;-85
2021/07/06 00:06:36;;;;;;;779.80;703.92;;;;;;;;;;5268246;27;20037;-85
2021/07/06 00:09:04;;;;;;;644.92;583.78;;;;;;;;;;5235859;27;20018;-86
2021/07/06 00:11:33;;;;;;;594.22;540.65;;;;;;;;;;5258051;27;20621;-86
2021/07/06 00:14:01;;;;;;;718.22;648.22;;;;;;;;;;5241756;27;20021;-85
2021/07/06 00:16:30;;;;;;;747.70;677.92;;;;;;;;;;5261249;27;20073;-84
2021/07/06 00:18:59;;;;;;;450.00;410.70;;;;;;;;;;5256062;27;20042;-86
2021/07/06 00:21:28;;;;;;;680.45;618.28;;;;;;;;;;5255653;27;20438;-85
2021/07/06 00:23:57;;;;;;;591.40;539.08;;;;;;;;;;5255232;27;20105;-85
2021/07/06 00:26:26;;;;;;;569.67;519.78;;;;;;;;;;5254729;27;20137;-85
2021/07/06 00:28:54;;;;;;;499.33;457.38;;;;;;;;;;5252771;27;20760;-86
2021/07/06 00:31:22;;;;;;;616.47;561.80;;;;;;;;;;5256875;27;20804;-85
2021/07/06 00:33:52;;;;;;;790.88;712.33;;;;;;;;;;5260736;27;20026;-85
2021/07/06 00:36:20;;;;;;;701.35;638.28;;;;;;;;;;5266731;27;20018;-85
2021/07/06 00:38:49;;;;;;;769.62;697.13;;;;;;;;;;5261849;27;20021;-84
2021/07/06 00:41:18;;;;;;;600.80;550.65;;;;;;;;;;5245358;27;20663;-85
2021/07/06 00:43:46;;;;;;;534.25;489.33;;;;;;;;;;5260319;27;20044;-85
2021/07/06 00:46:15;;;;;;;706.63;645.38;;;;;;;;;;5263475;27;20352;-85
2021/07/06 00:48:44;;;;;;;731.50;666.45;;;;;;;;;;5244728;27;20043;-85
2021/07/06 00:51:12;;;;;;;616.80;563.22;;;;;;;;;;5265317;27;20096;-84
2021/07/06 00:53:42;;;;;;;650.42;594.25;;;;;;;;;;5261477;27;20061;-84
2021/07/06 00:56:11;;;;;;;658.35;602.20;;;;;;;;;;5267823;27;20361;-85
2021/07/06 00:58:40;;;;;;;782.22;707.53;;;;;;;;;;5263726;27;20079;-85
2021/07/06 01:01:24;;;;;;;601.53;551.03;;;;;;;;;;5264887;27;20029;-85
2021/07/06 01:04:07;;;;;;;555.08;510.02;;;;;;;;;;5263785;27;20047;-85
2021/07/06 01:06:36;;;;;;;585.55;537.12;;;;;;;;;;5265010;27;20061;-85
2021/07/06 01:09:05;;;;;;;593.47;542.95;;;;;;;;;;5243364;27;20456;-85
2021/07/06 01:11:35;;;;;;;748.62;678.30;;;;;;;;;;5263352;27;20436;-85
2021/07/06 01:14:04;;;;;;;846.40;762.67;;;;;;;;;;5263257;27;20278;-85
2021/07/06 01:16:32;;;;;;;779.95;706.47;;;;;;;;;;5269482;27;20052;-85
2021/07/06 01:19:01;;;;;;;651.30;594.80;;;;;;;;;;5263201;27;20476;-84
2021/07/06 01:21:29;;;;;;;629.80;575.25;;;;;;;;;;5267679;27;20439;-85
2021/07/06 01:23:58;;;;;;;657.28;601.45;;;;;;;;;;5272809;27;20061;-84
2021/07/06 01:26:26;;;;;;;721.72;657.62;;;;;;;;;;5247708;27;20029;-85
2021/07/06 01:28:55;;;;;;;668.65;610.28;;;;;;;;;;5262093;27;20363;-85
2021/07/06 01:31:24;;;;;;;691.65;629.90;;;;;;;;;;5263376;27;20028;-85
2021/07/06 01:33:56;;;;;;;658.20;599.22;;;;;;;;;;5263251;27;20018;-84
2021/07/06 01:36:25;;;;;;;774.60;692.80;;;;;;;;;;5267860;27;20030;-85
2021/07/06 01:38:53;;;;;;;530.13;485.17;;;;;;;;;;5256773;27;20056;-85
2021/07/06 01:41:22;;;;;;;793.22;712.05;;;;;;;;;;5246707;27;20022;-85
2021/07/06 01:43:51;;;;;;;830.28;747.65;;;;;;;;;;5273516;27;20029;-85
2021/07/06 01:46:19;;;;;;;777.20;702.55;;;;;;;;;;5268013;27;20285;-85
2021/07/06 01:48:49;;;;;;;786.62;709.47;;;;;;;;;;5247211;27;20019;-85
2021/07/06 01:51:17;;;;;;;832.67;749.97;;;;;;;;;;5263710;27;20033;-85
2021/07/06 01:53:46;;;;;;;777.62;702.20;;;;;;;;;;5264061;27;20380;-85
2021/07/06 01:56:14;;;;;;;797.20;719.47;;;;;;;;;;5268540;27;20041;-85
2021/07/06 01:58:43;;;;;;;744.28;675.22;;;;;;;;;;5267076;27;20029;-85
2021/07/06 02:01:11;;;;;;;671.35;613.05;;;;;;;;;;5264826;27;20018;-85
2021/07/06 02:03:41;;;;;;;763.72;691.88;;;;;;;;;;5270524;27;20040;-85
2021/07/06 02:06:09;;;;;;;800.97;724.72;;;;;;;;;;5271600;27;20050;-84
2021/07/06 02:08:38;;;;;;;689.47;628.55;;;;;;;;;;5261518;27;20041;-84
2021/07/06 02:11:06;;;;;;;733.83;665.85;;;;;;;;;;5262585;27;20440;-85
2021/07/06 02:13:34;;;;;;;695.60;635.35;;;;;;;;;;5263456;27;20055;-85
2021/07/06 02:16:03;;;;;;;742.15;673.80;;;;;;;;;;5261908;27;20034;-85
2021/07/06 02:18:32;;;;;;;703.60;637.45;;;;;;;;;;5244490;27;20513;-85
2021/07/06 02:21:01;;;;;;;819.70;735.58;;;;;;;;;;5245506;27;20600;-85
2021/07/06 02:23:31;;;;;;;677.45;617.10;;;;;;;;;;5268988;27;20063;-85
2021/07/06 02:26:00;;;;;;;744.95;676.92;;;;;;;;;;5269306;27;20068;-85
2021/07/06 02:28:28;;;;;;;800.33;724.08;;;;;;;;;;5267472;27;20013;-85
2021/07/06 02:30:57;;;;;;;752.50;684.42;;;;;;;;;;5266800;27;20389;-85
2021/07/06 02:33:32;;;;;;;733.72;664.42;;;;;;;;;;5266095;27;20553;-84
2021/07/06 02:36:01;;;;;;;700.30;636.40;;;;;;;;;;5266288;27;20121;-84
2021/07/06 02:38:30;;;;;;;734.97;670.33;;;;;;;;;;5265600;27;20045;-85
2021/07/06 02:40:58;;;;;;;696.70;634.67;;;;;;;;;;5268676;27;20091;-86
2021/07/06 02:43:28;;;;;;;837.75;751.25;;;;;;;;;;5266073;27;20028;-85
2021/07/06 02:45:56;;;;;;;715.92;650.05;;;;;;;;;;5264392;27;20014;-84
2021/07/06 02:48:25;;;;;;;814.33;734.03;;;;;;;;;;5266467;27;20073;-85
2021/07/06 02:50:53;;;;;;;895.22;798.80;;;;;;;;;;5263906;27;20069;-85
2021/07/06 02:53:22;;;;;;;849.65;761.80;;;;;;;;;;5246889;27;20026;-85
2021/07/06 02:55:50;;;;;;;823.92;741.85;;;;;;;;;;5267336;27;20041;-85
2021/07/06 02:58:19;;;;;;;905.90;807.35;;;;;;;;;;5251087;27;20076;-85
2021/07/06 03:00:47;;;;;;;911.83;801.25;;;;;;;;;;5269708;27;20022;-84
2021/07/06 03:03:16;;;;;;;807.70;732.08;;;;;;;;;;5265350;27;20033;-84
2021/07/06 03:05:45;;;;;;;844.15;759.50;;;;;;;;;;5263440;27;20486;-85
2021/07/06 03:08:13;;;;;;;837.78;752.72;;;;;;;;;;5264255;27;20017;-85
2021/07/06 04:55:17;;;;;;;687.85;627.92;;;;;;;;;;5241652;27;20138;-85
2021/07/06 04:58:06;;;;;;;741.33;672.85;;;;;;;;;;5193300;27;20026;-86
2021/07/06 05:00:43;;;;;;;583.60;537.50;;;;;;;;;;5192462;27;20078;-85
2021/07/06 05:03:38;;;;;;;798.90;725.92;;;;;;;;;;5178082;27;20281;-87
2021/07/06 05:06:38;;;;;;;629.90;578.42;;;;;;;;;;5173364;27;20427;-86
2021/07/06 05:17:06;;;;;;;847.58;762.28;;;;;;;;;;5171634;27;20022;-87
2021/07/06 05:20:00;;;;;;;829.22;747.67;;;;;;;;;;5161205;27;20168;-85
2021/07/06 05:22:50;;;;;;;729.17;666.15;;;;;;;;;;5158872;27;20066;-86
2021/07/06 05:26:12;;;;;;;;;;;;;;;;;;;;;
2021/07/06 05:33:02;;;;;;;839.30;757.10;;;;;;;;;;5187838;27;20415;-87
2021/07/06 05:36:08;;;;;;;797.10;720.60;;;;;;;;;;5164756;27;20032;-88
2021/07/06 05:38:44;;;;;;;720.25;656.20;;;;;;;;;;5149808;27;20476;-86
2021/07/06 05:41:36;;;;;;;816.10;739.75;;;;;;;;;;5171706;27;20511;-86
2021/07/06 05:44:51;;;;;;;835.83;754.80;;;;;;;;;;5169930;27;20034;-88
2021/07/06 05:47:41;;;;;;;;;;;;;;;;;;;;;
2021/07/06 05:51:01;;;;;;;753.45;688.08;;;;;;;;;;5119223;27;20477;-86
2021/07/06 05:55:11;;;;;;;672.20;616.45;;;;;;;;;;5081932;28;20226;-87
2021/07/06 05:58:03;;;;;;;735.50;668.78;;;;;;;;;;5070633;28;20544;-85
2021/07/06 06:01:09;;;;;;;840.47;757.30;;;;;;;;;;5061067;28;20207;-86
2021/07/06 06:03:47;;;;;;;742.70;676.03;;;;;;;;;;5063180;28;20081;-87
2021/07/06 06:09:58;;;;;;;771.85;699.42;;;;;;;;;;5053980;28;20051;-85
2021/07/06 06:12:58;;;;;;;711.33;652.67;;;;;;;;;;5060262;28;20036;-86
2021/07/06 06:15:42;;;;;;;733.95;671.22;;;;;;;;;;5071210;28;20033;-85
2021/07/06 06:18:30;;;;;;;861.05;775.03;;;;;;;;;;5102209;27;20039;-85
2021/07/06 06:20:59;;;;;;;820.60;739.67;;;;;;;;;;5122758;27;20093;-85
2021/07/06 06:23:40;;;;;;;824.97;745.60;;;;;;;;;;5119307;27;20373;-87
2021/07/06 06:26:30;;;;;;;783.47;708.95;;;;;;;;;;5095569;27;20422;-86
2021/07/06 06:29:56;;;;;;;;;;;;;;;;;;;;;
2021/07/06 06:32:44;;;;;;;911.50;811.43;;;;;;;;;;5172338;27;20080;-83
2021/07/06 06:35:56;;;;;;;790.90;718.90;;;;;;;;;;5184153;27;20440;-88
2021/07/06 06:42:06;;;;;;;879.95;787.45;;;;;;;;;;5178588;27;20545;-88
2021/07/06 06:45:04;;;;;;;726.63;666.90;;;;;;;;;;5185748;27;20580;-88
2021/07/06 06:47:44;;;;;;;;;;;;;;;;;;5186533;27;20409;-87
2021/07/06 06:51:13;;;;;;;724.50;657.53;;;;;;;;;;5192065;27;19996;-87
2021/07/06 06:53:57;;;;;;;859.25;770.30;;;;;;;;;;5176962;27;20043;-87
2021/07/06 06:57:10;;;;;;;694.13;635.58;;;;;;;;;;5178687;27;20166;-87
2021/07/06 07:00:37;;;;;;;804.53;725.55;;;;;;;;;;5191742;27;20252;-85
2021/07/06 07:03:36;;;;;;;859.37;770.40;;;;;;;;;;5175555;27;20022;-87
2021/07/06 07:06:26;;;;;;;840.20;755.90;;;;;;;;;;5179100;27;20466;-87
2021/07/06 07:09:20;;;;;;;;;;;;;;;;;;;;;
2021/07/06 07:16:03;;;;;;;834.70;755.03;;;;;;;;;;5127438;27;20458;-88
2021/07/06 07:18:47;;;;;;;737.95;675.70;;;;;;;;;;5127311;27;20182;-85
2021/07/06 07:21:39;;;;;;;813.92;738.42;;;;;;;;;;5114610;27;20029;-88
2021/07/06 07:24:45;;;;;;;823.55;745.08;;;;;;;;;;5120181;27;20215;-88
2021/07/06 07:27:17;;;;;;;851.40;769.88;;;;;;;;;;5131289;27;20027;-86
2021/07/06 07:29:59;;;;;;;846.65;758.78;;;;;;;;;;5140123;27;20031;-87
2021/07/06 07:32:45;;;;;;;882.90;786.85;;;;;;;;;;5176479;27;20455;-86
2021/07/06 07:35:35;;;;;;;881.42;786.58;;;;;;;;;;5175037;27;20033;-85
2021/07/06 07:41:22;;;;;;;768.83;695.33;;;;;;;;;;5215242;27;20019;-87
2021/07/06 07:44:09;;;;;;;658.78;606.83;;;;;;;;;;5193663;27;20021;-86
2021/07/06 07:46:41;;;;;;;781.13;707.47;;;;;;;;;;5170061;27;20046;-86
2021/07/06 07:49:27;;;;;;;779.38;713.80;;;;;;;;;;5151221;27;20064;-87
2021/07/06 07:52:08;;;;;;;796.42;729.95;;;;;;;;;;5167880;27;20054;-87
2021/07/06 07:58:43;;;;;;;;;;;;;;;;;;;;;
2021/07/06 08:01:23;;;;;;;883.08;789.97;;;;;;;;;;5200686;27;20034;-86
2021/07/06 08:04:29;;;;;;;889.10;799.10;;;;;;;;;;5170321;27;20283;-86
2021/07/06 08:07:26;;;;;;;870.35;783.83;;;;;;;;;;5176758;27;20526;-88
2021/07/06 08:17:23;;;;;;;859.30;770.05;;;;;;;;;;5054404;28;20144;-86
2021/07/06 08:20:06;;;;;;;705.25;645.88;;;;;;;;;;5114541;27;20035;-86
2021/07/06 08:22:55;;;;;;;812.58;733.03;;;;;;;;;;5186113;27;20041;-85
2021/07/06 08:26:03;;;;;;;825.78;744.85;;;;;;;;;;5184225;27;20079;-86
2021/07/06 08:28:43;;;;;;;799.65;727.15;;;;;;;;;;5165797;27;20610;-87
2021/07/06 08:31:48;;;;;;;789.22;718.63;;;;;;;;;;5208397;27;20308;-89
2021/07/06 08:34:35;;;;;;;874.75;786.85;;;;;;;;;;5206033;27;20039;-85
2021/07/06 08:37:53;;;;;;;658.08;605.17;;;;;;;;;;5173655;27;20104;-85
2021/07/06 08:40:28;;;;;;;736.88;672.40;;;;;;;;;;5178275;27;20347;-87
2021/07/06 08:44:14;;;;;;;;;;;;;;;;;;;;;
2021/07/06 08:51:14;;;;;;;805.40;731.00;;;;;;;;;;5172174;27;20033;-86
2021/07/06 08:54:31;;;;;;;810.92;731.83;;;;;;;;;;5162761;27;20609;-85
2021/07/06 08:57:38;;;;;;;564.33;518.67;;;;;;;;;;5093555;28;20264;-86
2021/07/06 09:00:17;;;;;;;678.55;621.67;;;;;;;;;;5113351;28;20098;-86
2021/07/06 09:04:12;;;;;;;776.87;705.42;;;;;;;;;;5049835;27;20027;-90
2021/07/06 09:11:25;;;;;;;717.28;653.00;;;;;;;;;;5072334;28;20073;-89
2021/07/06 09:14:14;;;;;;;;;;;;;;;;;;5016263;28;20122;-87
2021/07/06 09:17:32;;;;;;;786.20;711.97;;;;;;;;;;5035368;28;20033;-84
2021/07/06 09:23:10;;;;;;;738.58;676.13;;;;;;;;;;5064626;28;20303;-89
2021/07/06 09:26:07;;;;;;;838.17;750.70;;;;;;;;;;5048039;28;20030;-88
2021/07/06 09:29:22;;;;;;;891.78;798.17;;;;;;;;;;5053591;28;20153;-85
2021/07/06 09:36:04;;;;;;;850.88;764.75;;;;;;;;;;5094792;27;20259;-86
2021/07/06 09:43:19;;;;;;;867.42;779.70;;;;;;;;;;5195986;27;20119;-87
2021/07/06 09:46:17;;;;;;;884.72;794.30;;;;;;;;;;5160871;27;20089;-85
2021/07/06 09:49:24;;;;;;;823.67;745.15;;;;;;;;;;5130044;27;20097;-86
2021/07/06 09:52:42;;;;;;;;;;;;;;;;;;;;;
2021/07/06 09:59:46;;;;;;;630.78;576.35;;;;;;;;;;5158454;27;20031;-87
2021/07/06 10:03:23;;;;;;;731.47;663.25;;;;;;;;;;5111431;27;20512;-87
2021/07/06 10:17:49;;;;;;;588.60;537.75;;;;;;;;;;4896930;29;20186;-87
2021/07/06 10:20:30;;;;;;;638.37;582.88;;;;;;;;;;4916862;29;20239;-88
2021/07/06 10:30:34;;;;;;;751.33;677.50;;;;;;;;;;4964612;28;19956;-87
2021/07/06 10:34:20;;;;;;;666.30;599.70;;;;;;;;;;4939990;28;20252;-88
2021/07/06 10:37:48;;;;;;;659.20;598.08;;;;;;;;;;5085576;27;20048;-88
2021/07/06 10:40:44;;;;;;;656.00;593.83;;;;;;;;;;5169144;27;20030;-89
2021/07/06 13:39:42;;;;;;;901.50;743.33;;;;;;;;;;5169356;27;20074;-83
2021/07/06 13:42:11;;;;;;;1035.50;786.90;;;;;;;;;;5182188;27;20085;-83
2021/07/06 16:25:03;;;;;;;785.83;702.97;;;;;;;;;;5226429;27;20057;-85
2021/07/06 16:27:33;;;;;;;788.03;701.92;;;;;;;;;;5222800;27;20094;-85
2021/07/06 16:30:02;;;;;;;868.13;774.67;;;;;;;;;;5219897;27;20049;-85
2021/07/06 16:32:30;;;;;;;902.25;804.80;;;;;;;;;;5226442;27;20032;-85
2021/07/06 16:34:59;;;;;;;793.22;713.83;;;;;;;;;;5228735;27;20069;-85
2021/07/06 16:37:28;;;;;;;650.85;597.67;;;;;;;;;;5227018;27;20029;-86
2021/07/06 16:40:00;;;;;;;655.35;599.75;;;;;;;;;;5229818;27;20022;-86
2021/07/06 16:42:29;;;;;;;844.58;756.28;;;;;;;;;;5224915;27;20042;-85
2021/07/06 16:44:58;;;;;;;837.58;749.80;;;;;;;;;;5229787;27;20056;-86
2021/07/06 16:47:29;;;;;;;788.60;711.35;;;;;;;;;;5227158;27;20059;-86
2021/07/06 16:49:58;;;;;;;763.53;688.15;;;;;;;;;;5226761;27;20018;-85
2021/07/06 17:59:53;;;;;;;638.15;582.40;;;;;;;;;;5162748;27;20461;-85
2021/07/06 18:05:10;;;;;;;506.52;462.42;;;;;;;;;;5220860;27;20078;-85
2021/07/06 18:07:38;;;;;;;599.75;547.13;;;;;;;;;;5211007;27;20011;-86
2021/07/06 18:10:07;;;;;;;733.28;667.37;;;;;;;;;;5226355;27;20062;-85
2021/07/06 18:12:36;;;;;;;799.03;722.72;;;;;;;;;;5222013;27;20397;-85
2021/07/06 18:15:05;;;;;;;663.12;603.38;;;;;;;;;;5204371;27;20026;-85
2021/07/06 18:17:34;;;;;;;664.05;601.05;;;;;;;;;;5223666;27;20023;-86
2021/07/06 18:20:05;;;;;;;646.80;589.03;;;;;;;;;;5223150;27;20049;-86
2021/07/06 18:22:34;;;;;;;798.90;724.90;;;;;;;;;;5221743;27;20017;-86
2021/07/06 18:25:04;;;;;;;702.55;642.25;;;;;;;;;;5222400;27;20057;-86
2021/07/06 18:27:32;;;;;;;734.08;668.30;;;;;;;;;;5228226;27;20027;-86
2021/07/06 18:30:01;;;;;;;849.03;770.75;;;;;;;;;;5210236;27;20019;-85
2021/07/06 18:32:30;;;;;;;591.92;541.30;;;;;;;;;;5224636;27;20428;-86
2021/07/06 18:34:58;;;;;;;685.42;623.30;;;;;;;;;;5227358;27;20630;-85
2021/07/06 18:37:27;;;;;;;803.30;726.47;;;;;;;;;;5202898;27;20353;-86
2021/07/06 18:39:56;;;;;;;780.45;714.35;;;;;;;;;;5220758;27;20521;-85
2021/07/06 18:42:25;;;;;;;765.75;698.88;;;;;;;;;;5222837;27;20093;-85
2021/07/06 18:44:57;;;;;;;725.03;662.35;;;;;;;;;;5221237;27;20027;-86
2021/07/06 18:47:25;;;;;;;793.17;723.80;;;;;;;;;;5225321;27;20033;-86
2021/07/06 18:49:54;;;;;;;687.40;633.20;;;;;;;;;;5222831;27;20022;-85
2021/07/06 18:52:23;;;;;;;749.03;686.15;;;;;;;;;;5220294;27;21646;-85
2021/07/06 18:54:51;;;;;;;818.05;744.00;;;;;;;;;;5221127;27;20048;-86
2021/07/06 18:57:20;;;;;;;565.70;524.30;;;;;;;;;;5221044;27;20051;-85
2021/07/06 18:59:57;;;;;;;881.22;799.45;;;;;;;;;;5222107;27;20374;-85
2021/07/06 19:05:20;;;;;;;770.33;701.95;;;;;;;;;;5226428;27;20078;-85
2021/07/06 19:07:57;;;;;;;769.72;698.97;;;;;;;;;;5222165;27;20296;-84
2021/07/06 19:10:28;;;;;;;757.25;690.92;;;;;;;;;;5225362;27;20022;-86
2021/07/06 19:12:56;;;;;;;891.03;800.55;;;;;;;;;;5224696;27;20043;-85
2021/07/06 19:15:31;;;;;;;736.40;672.17;;;;;;;;;;5225290;27;20037;-85
2021/07/06 19:18:02;;;;;;;803.05;733.45;;;;;;;;;;5218930;27;20076;-85
2021/07/06 19:20:32;;;;;;;708.87;648.58;;;;;;;;;;5216683;27;20452;-85
2021/07/06 19:23:01;;;;;;;670.67;616.62;;;;;;;;;;5223283;27;20026;-85
2021/07/06 19:31:12;;;;;;;742.58;677.53;;;;;;;;;;5195162;27;20025;-85
2021/07/06 19:33:41;;;;;;;649.03;594.13;;;;;;;;;;5229416;27;20214;-85
2021/07/06 19:36:10;;;;;;;760.15;692.47;;;;;;;;;;5220948;27;20430;-86
2021/07/06 19:38:39;;;;;;;766.00;698.22;;;;;;;;;;5224860;27;20058;-86
2021/07/06 19:41:07;;;;;;;856.05;770.85;;;;;;;;;;5204555;27;20385;-85
2021/07/06 19:43:37;;;;;;;852.53;768.53;;;;;;;;;;5202427;27;20388;-84
2021/07/06 19:46:06;;;;;;;799.70;729.28;;;;;;;;;;5222032;27;20023;-86
2021/07/06 19:48:34;;;;;;;727.92;669.62;;;;;;;;;;5222250;27;20065;-84
2021/07/06 19:51:03;;;;;;;852.65;770.47;;;;;;;;;;5225741;27;20439;-86
2021/07/06 19:53:32;;;;;;;793.10;721.33;;;;;;;;;;5226252;27;20381;-85
2021/07/06 19:56:01;;;;;;;805.53;731.25;;;;;;;;;;5224645;27;20068;-86
2021/07/06 19:58:30;;;;;;;842.35;757.12;;;;;;;;;;5219628;27;20062;-85
2021/07/06 20:00:58;;;;;;;863.20;777.37;;;;;;;;;;5222974;27;20033;-85
2021/07/06 20:03:28;;;;;;;749.97;681.63;;;;;;;;;;5222415;27;20576;-86
2021/07/06 20:05:56;;;;;;;674.85;619.33;;;;;;;;;;5224131;27;20034;-85
2021/07/06 20:08:24;;;;;;;762.35;686.60;;;;;;;;;;5224654;27;20022;-85
2021/07/06 20:10:53;;;;;;;784.50;710.72;;;;;;;;;;5223992;27;20026;-86
2021/07/06 20:13:22;;;;;;;630.63;578.67;;;;;;;;;;5224796;27;20025;-85
2021/07/06 20:15:54;;;;;;;669.35;614.45;;;;;;;;;;5204954;27;20141;-85
2021/07/06 20:18:23;;;;;;;583.85;539.45;;;;;;;;;;5223246;27;20033;-86
2021/07/06 20:20:55;;;;;;;784.42;712.55;;;;;;;;;;5205435;27;20065;-85
2021/07/06 20:23:24;;;;;;;1049.57;934.08;;;;;;;;;;5226267;27;20026;-85
2021/07/06 20:25:52;;;;;;;1498.30;979.87;;;;;;;;;;5224482;27;20014;-86
2021/07/06 20:28:21;;;;;;;1091.45;923.87;;;;;;;;;;5224297;27;20056;-86
2021/07/06 20:30:50;;;;;;;1238.60;955.92;;;;;;;;;;5223765;27;20108;-86
2021/07/06 20:33:18;;;;;;;1252.38;964.80;;;;;;;;;;5224442;27;20073;-86
2021/07/06 20:35:47;;;;;;;1187.53;960.67;;;;;;;;;;5204954;27;20069;-85
2021/07/06 20:38:16;;;;;;;1367.45;987.63;;;;;;;;;;5224829;27;20502;-85
2021/07/06 20:40:45;;;;;;;1592.63;999.65;;;;;;;;;;5224008;27;20038;-85
2021/07/06 20:43:13;;;;;;;1074.22;951.45;;;;;;;;;;5204835;27;20380;-85
2021/07/06 20:45:42;;;;;;;1112.40;956.53;;;;;;;;;;5223414;27;20475;-85
2021/07/06 20:48:10;;;;;;;1033.50;923.40;;;;;;;;;;5226315;27;20172;-85
2021/07/06 20:50:39;;;;;;;1067.75;930.92;;;;;;;;;;5223864;27;20420;-86
2021/07/06 20:53:10;;;;;;;999.92;894.37;;;;;;;;;;5225017;27;20413;-85
2021/07/06 20:55:38;;;;;;;1063.95;898.28;;;;;;;;;;5222858;27;20029;-85
2021/07/06 20:58:07;;;;;;;1244.15;947.22;;;;;;;;;;5224931;27;20457;-86
2021/07/06 21:00:36;;;;;;;985.25;882.72;;;;;;;;;;5223371;27;20038;-86
2021/07/06 21:03:06;;;;;;;1365.30;983.20;;;;;;;;;;5225748;27;20337;-85
2021/07/06 21:05:34;;;;;;;1143.63;924.95;;;;;;;;;;5207432;27;20630;-85
2021/07/06 21:08:05;;;;;;;1398.40;976.85;;;;;;;;;;5224873;27;20097;-85
2021/07/06 21:10:34;;;;;;;1427.57;966.95;;;;;;;;;;5223608;27;20302;-85
2021/07/06 21:13:03;;;;;;;1454.05;973.10;;;;;;;;;;5228048;27;20030;-85
2021/07/06 21:15:32;;;;;;;1105.60;905.08;;;;;;;;;;5229337;27;20038;-85
2021/07/06 21:18:00;;;;;;;1352.75;969.17;;;;;;;;;;5230137;27;20054;-85
2021/07/06 21:20:29;;;;;;;1341.95;932.30;;;;;;;;;;5230207;27;20401;-85
2021/07/06 21:22:58;;;;;;;1434.40;959.45;;;;;;;;;;5227614;27;20018;-84
2021/07/06 21:25:26;;;;;;;1247.13;931.47;;;;;;;;;;5227111;27;20462;-85
2021/07/06 21:27:55;;;;;;;1070.75;892.40;;;;;;;;;;5228340;27;20053;-85
2021/07/06 21:30:23;;;;;;;1064.28;891.90;;;;;;;;;;5230337;27;20061;-85
2021/07/06 21:32:52;;;;;;;1001.45;885.10;;;;;;;;;;5229391;27;20025;-84
2021/07/06 21:35:21;;;;;;;1162.05;932.47;;;;;;;;;;5207672;27;20401;-85
2021/07/06 21:37:49;;;;;;;1182.72;957.80;;;;;;;;;;5228145;27;20028;-85
2021/07/06 21:40:18;;;;;;;1182.03;963.03;;;;;;;;;;5228881;27;20041;-85
2021/07/06 21:42:49;;;;;;;1129.70;968.72;;;;;;;;;;5227284;27;20465;-86
2021/07/06 21:45:18;;;;;;;1067.35;921.08;;;;;;;;;;5227752;27;20097;-85
2021/07/06 21:47:47;;;;;;;1140.82;911.20;;;;;;;;;;5227414;27;20061;-85
2021/07/06 21:50:17;;;;;;;966.00;853.22;;;;;;;;;;5225311;27;20027;-85
2021/07/06 21:52:46;;;;;;;930.00;835.25;;;;;;;;;;5224081;27;20026;-84
2021/07/06 21:55:14;;;;;;;1144.57;905.97;;;;;;;;;;5225939;27;20404;-85
2021/07/06 21:57:43;;;;;;;1338.32;938.40;;;;;;;;;;5225551;27;20026;-85
2021/07/06 22:00:14;;;;;;;1201.60;896.45;;;;;;;;;;5227579;27;20029;-84
2021/07/06 22:02:44;;;;;;;901.17;775.35;;;;;;;;;;5225995;27;20034;-84
2021/07/06 22:05:13;;;;;;;822.75;740.58;;;;;;;;;;5228842;27;20044;-85
2021/07/06 22:07:41;;;;;;;757.90;676.67;;;;;;;;;;5206686;27;20498;-85
2021/07/06 22:10:12;;;;;;;825.65;737.83;;;;;;;;;;5210472;27;20063;-85
2021/07/06 22:12:42;;;;;;;1040.07;831.40;;;;;;;;;;5226427;27;20427;-84
2021/07/06 22:15:11;;;;;;;1164.55;881.78;;;;;;;;;;5227376;27;20411;-85
2021/07/06 22:17:41;;;;;;;1166.32;877.95;;;;;;;;;;5226786;27;20060;-85
2021/07/06 22:20:12;;;;;;;1305.97;921.22;;;;;;;;;;5227468;27;20066;-85
2021/07/06 22:22:40;;;;;;;881.45;775.62;;;;;;;;;;5226810;27;20319;-85
2021/07/06 22:25:09;;;;;;;851.08;759.33;;;;;;;;;;5226530;27;20036;-85
2021/07/06 22:27:38;;;;;;;886.40;793.58;;;;;;;;;;5229898;27;20034;-85
2021/07/06 22:30:07;;;;;;;919.78;819.90;;;;;;;;;;5229181;27;20093;-85
2021/07/06 22:32:36;;;;;;;1093.63;880.70;;;;;;;;;;5207173;27;20078;-85
2021/07/06 22:35:06;;;;;;;1081.63;869.53;;;;;;;;;;5227312;27;20057;-85
2021/07/06 22:37:34;;;;;;;1159.45;890.70;;;;;;;;;;5208223;27;20022;-85
2021/07/06 22:40:04;;;;;;;888.47;795.80;;;;;;;;;;5227653;27;20030;-85
2021/07/06 22:42:33;;;;;;;1000.50;864.25;;;;;;;;;;5226723;27;20026;-86
2021/07/06 22:45:01;;;;;;;1144.82;877.78;;;;;;;;;;5228329;27;20037;-85
2021/07/06 22:47:30;;;;;;;1368.57;928.80;;;;;;;;;;5225915;27;20014;-85
2021/07/06 22:49:59;;;;;;;1202.40;890.08;;;;;;;;;;5226410;27;20030;-85
2021/07/06 22:52:27;;;;;;;1211.80;908.70;;;;;;;;;;5225984;27;20365;-85
2021/07/06 22:54:56;;;;;;;1265.22;895.53;;;;;;;;;;5230768;27;20006;-85
2021/07/06 22:57:24;;;;;;;1023.55;845.28;;;;;;;;;;5228777;27;20030;-85
2021/07/06 22:59:53;;;;;;;1264.50;910.47;;;;;;;;;;5228036;27;20162;-85
2021/07/06 23:02:21;;;;;;;1224.75;873.38;;;;;;;;;;5209362;27;20384;-85
2021/07/06 23:04:50;;;;;;;1168.43;871.37;;;;;;;;;;5230226;27;20094;-85
2021/07/06 23:07:19;;;;;;;758.20;681.80;;;;;;;;;;5230783;27;20045;-85
2021/07/06 23:09:49;;;;;;;1108.32;870.97;;;;;;;;;;5225683;27;20037;-85
2021/07/06 23:12:18;;;;;;;1127.03;872.55;;;;;;;;;;5228054;27;20018;-84
2021/07/06 23:14:47;;;;;;;1047.10;843.90;;;;;;;;;;5224980;27;20014;-85
2021/07/06 23:17:15;;;;;;;900.72;797.87;;;;;;;;;;5222799;27;20048;-85
2021/07/06 23:19:44;;;;;;;1200.65;894.28;;;;;;;;;;5222944;27;20317;-86
2021/07/06 23:22:12;;;;;;;1149.00;876.03;;;;;;;;;;5223699;27;20066;-85
2021/07/06 23:24:41;;;;;;;1042.13;832.80;;;;;;;;;;5225961;27;20062;-84
2021/07/06 23:27:10;;;;;;;1442.15;933.60;;;;;;;;;;5222936;27;20405;-85
2021/07/06 23:29:38;;;;;;;1194.68;881.67;;;;;;;;;;5224018;27;20022;-85
2021/07/06 23:32:07;;;;;;;1071.15;844.90;;;;;;;;;;5224579;27;20404;-86
2021/07/06 23:34:36;;;;;;;975.35;817.88;;;;;;;;;;5226906;27;20030;-85
2021/07/06 23:37:05;;;;;;;1486.40;947.47;;;;;;;;;;5224387;27;20097;-85
2021/07/06 23:39:33;;;;;;;1091.88;874.30;;;;;;;;;;5222743;27;20026;-85
2021/07/06 23:42:02;;;;;;;1281.75;893.05;;;;;;;;;;5206001;27;20062;-85
2021/07/06 23:44:31;;;;;;;1449.13;936.97;;;;;;;;;;5225463;27;20033;-86
2021/07/06 23:46:59;;;;;;;1216.70;877.83;;;;;;;;;;5224426;27;20064;-85
2021/07/06 23:49:28;;;;;;;1334.78;917.28;;;;;;;;;;5214309;27;20026;-85
2021/07/06 23:51:57;;;;;;;1027.40;836.72;;;;;;;;;;5204862;27;20014;-85
2021/07/06 23:54:26;;;;;;;961.12;782.08;;;;;;;;;;5225050;27;20052;-85
2021/07/06 23:56:54;;;;;;;1281.38;898.25;;;;;;;;;;5205751;27;20038;-86
2021/07/06 23:59:23;;;;;;;1174.45;862.10;;;;;;;;;;5223417;27;20060;-85
